Portada
METAR-TAF:

METAR-TAF

Aeropuertos :

Aeropuerto Internacional de Maputo

Maputo, Mozambique

latitud: 25-55S, longitud: 032-34E, altitud: 39 m

Observación

El informe se hizo hace 52 minutos, a las 03:00 UTC
Viento 2 kt con dirección variable
Temperatura 22°C
Humedad 88%
Presión 1016 hPa
Visibilidad 10 km o más
Escasas nubes a una altura de 2000 ft

METAR: FQMA 020300Z VRB02KT 9999 FEW020 22/20 Q1016 NOSIG

Hora: 05:52 (03:52 UTC)

Pronóstico

El informe se hizo hace 17 horas y 52 minutos, a las 10:00 UTC
Pronóstico válido del 01 a las 12 UTC al 02 a las 18 UTC
Viento 10 kt del este-sureste
Visibilidad 10 km o más
Escasas nubes a una altura de 2500 ft
Evolucionando progresivamente
del 02 a las 01 UTC al 02 a las 03 UTC
Viento 11 kt del oeste
Evolucionando progresivamente
del 02 a las 10 UTC al 02 a las 12 UTC
Viento 10 kt del este

TAF: FQMA 011000Z 0112/0218 11010KT 9999 FEW025 TX30/0113Z TN24/0202Z BECMG 0201/0203 27011KT BECMG 0210/0212 09010KT

Observaciones y pronósticos meteorológicos de más de 4000 aeropuertos (mensajes METAR y TAF).

Los puntos amarillos y rojos representan las estaciones disponibles.

Ponga el ratón en el punto deseado para ver el nombre de la estación.

Haga clic para ver las observaciones y los pronósticos meteorológicos.

Para cambiar el mapa : haga clic en los botones verdes con una cruz de color negro para hacer un zoom, en el botón verde con un guión para alejar o en las flechas verdes para mapas adyacentes.


METAR-TAF: